createdAt,value
2018-05-10T00:01:39.563Z,47.20
2018-05-10T00:04:07.216Z,47.00
2018-05-10T00:06:34.931Z,47.30
2018-05-10T00:09:03.380Z,46.90
2018-05-10T00:11:31.030Z,47.00
2018-05-10T00:13:58.752Z,46.70
2018-05-10T00:16:26.406Z,46.70
2018-05-10T00:18:54.816Z,46.60
2018-05-10T00:21:22.523Z,46.70
2018-05-10T00:23:50.158Z,47.00
2018-05-10T00:26:17.795Z,47.10
2018-05-10T00:28:45.504Z,47.00
2018-05-10T00:31:13.144Z,47.00
2018-05-10T00:33:40.779Z,47.00
2018-05-10T00:36:08.525Z,46.60
2018-05-10T00:38:36.202Z,46.90
2018-05-10T00:41:03.881Z,47.00
2018-05-10T00:43:31.584Z,46.80
2018-05-10T00:45:59.232Z,47.00
2018-05-10T00:48:26.882Z,46.80
2018-05-10T00:50:54.596Z,46.60
2018-05-10T00:53:23.002Z,46.80
2018-05-10T00:55:50.765Z,46.80
2018-05-10T00:58:18.476Z,47.00
2018-05-10T01:00:46.122Z,46.80
2018-05-10T01:03:13.767Z,46.80
2018-05-10T01:05:41.466Z,46.60
2018-05-10T01:08:09.106Z,46.60
2018-05-10T01:10:37.375Z,46.70
2018-05-10T01:13:05.838Z,46.60
2018-05-10T01:15:33.458Z,46.60
2018-05-10T01:18:01.204Z,46.50
2018-05-10T01:20:29.031Z,46.80
2018-05-10T01:22:56.702Z,46.80
2018-05-10T01:25:24.330Z,47.00
2018-05-10T01:27:52.763Z,46.70
2018-05-10T01:30:20.591Z,46.70
2018-05-10T01:32:48.222Z,46.90
2018-05-10T01:35:27.756Z,47.40
2018-05-10T01:37:55.389Z,47.60
2018-05-10T01:40:23.017Z,48.00
2018-05-10T01:42:50.754Z,48.40
2018-05-10T01:45:18.379Z,48.50
2018-05-10T01:47:46.128Z,48.40
2018-05-10T01:50:14.429Z,48.70
2018-05-10T01:52:42.072Z,48.20
2018-05-10T01:55:09.704Z,50.00
2018-05-10T01:57:37.545Z,50.20
2018-05-10T02:00:05.202Z,50.10
2018-05-10T02:02:32.889Z,50.60
2018-05-10T02:05:00.666Z,50.80
2018-05-10T02:07:28.306Z,50.80
2018-05-10T02:09:56.739Z,51.10
2018-05-10T02:12:24.420Z,51.10
2018-05-10T02:14:52.099Z,51.10
2018-05-10T02:17:19.743Z,51.30
2018-05-10T02:19:47.460Z,52.60
2018-05-10T02:22:15.081Z,51.70
2018-05-10T02:24:42.752Z,51.60
2018-05-10T02:27:10.457Z,50.60
2018-05-10T02:29:38.136Z,49.70
2018-05-10T02:32:05.788Z,49.80
2018-05-10T02:34:33.512Z,49.70
2018-05-10T02:37:01.905Z,50.30
2018-05-10T02:39:29.531Z,50.30
2018-05-10T02:41:57.277Z,49.80
2018-05-10T02:44:25.006Z,49.50
2018-05-10T02:46:52.646Z,49.30
2018-05-10T02:49:21.126Z,48.70
2018-05-10T02:51:49.525Z,48.90
2018-05-10T02:54:17.147Z,48.90
2018-05-10T02:56:44.845Z,48.80
2018-05-10T02:59:12.726Z,49.50
2018-05-10T03:01:40.364Z,49.90
2018-05-10T03:04:08.818Z,50.60
2018-05-10T03:06:36.438Z,50.60
2018-05-10T03:09:04.113Z,51.40
2018-05-10T03:11:31.813Z,51.30
2018-05-10T03:13:59.440Z,51.30
2018-05-10T03:16:27.068Z,51.00
2018-05-10T03:18:54.758Z,51.50
2018-05-10T03:21:22.391Z,51.60
2018-05-10T03:23:50.019Z,51.60
2018-05-10T03:26:17.727Z,52.50
2018-05-10T03:28:45.343Z,51.70
2018-05-10T03:31:12.963Z,53.60
2018-05-10T03:33:40.642Z,54.40
2018-05-10T03:36:08.271Z,53.30
2018-05-10T03:38:35.898Z,54.10
2018-05-10T03:41:03.591Z,53.90
2018-05-10T03:43:31.211Z,52.80
2018-05-10T03:45:58.835Z,53.10
2018-05-10T03:48:26.529Z,53.20
2018-05-10T03:50:54.151Z,53.30
2018-05-10T03:53:21.771Z,52.70
2018-05-10T03:55:51.059Z,53.40
2018-05-10T03:58:18.691Z,53.30
2018-05-10T04:00:46.457Z,53.40
2018-05-10T04:03:52.926Z,53.40
2018-05-10T04:06:32.263Z,53.60
2018-05-10T04:09:11.823Z,54.00
2018-05-10T04:11:39.533Z,53.50
2018-05-10T04:14:07.163Z,54.20
2018-05-10T04:16:34.864Z,53.50
2018-05-10T04:19:02.529Z,53.30
2018-05-10T04:21:30.189Z,53.50
2018-05-10T04:23:57.879Z,53.30
2018-05-10T04:26:25.544Z,54.20
2018-05-10T04:28:53.178Z,53.20
2018-05-10T04:31:20.867Z,54.20
2018-05-10T04:33:48.502Z,53.00
2018-05-10T04:36:16.152Z,54.00
2018-05-10T04:38:43.953Z,52.50
2018-05-10T04:41:11.627Z,52.80
2018-05-10T04:43:39.294Z,52.90
2018-05-10T04:46:07.003Z,51.60
2018-05-10T04:48:34.643Z,51.10
2018-05-10T04:51:02.273Z,51.20
2018-05-10T04:53:29.972Z,50.80
2018-05-10T04:55:58.439Z,50.40
2018-05-10T04:58:26.070Z,50.30
2018-05-10T05:00:53.759Z,50.10
2018-05-10T05:03:21.545Z,49.80
2018-05-10T05:05:49.107Z,49.60
2018-05-10T05:08:17.583Z,48.50
2018-05-10T05:10:46.067Z,48.60
2018-05-10T05:13:14.475Z,48.30
2018-05-10T05:15:42.171Z,48.30
2018-05-10T05:18:09.801Z,48.10
2018-05-10T05:20:37.438Z,47.20
2018-05-10T05:23:05.899Z,45.90
2018-05-10T05:25:33.550Z,45.90
2018-05-10T05:28:01.196Z,45.80
2018-05-10T05:30:28.909Z,45.50
2018-05-10T05:32:57.412Z,45.50
2018-05-10T05:35:25.029Z,45.50
2018-05-10T05:37:52.646Z,44.90
2018-05-10T05:40:20.327Z,44.90
2018-05-10T05:42:47.953Z,44.80
2018-05-10T05:45:15.566Z,45.00
2018-05-10T05:47:43.271Z,44.60
2018-05-10T05:50:10.899Z,44.80
2018-05-10T05:52:38.537Z,44.50
2018-05-10T05:55:06.324Z,44.10
2018-05-10T05:57:33.902Z,44.30
2018-05-10T06:00:02.357Z,44.00
2018-05-10T06:02:30.031Z,44.00
2018-05-10T06:04:57.667Z,43.60
2018-05-10T06:07:25.287Z,43.30
2018-05-10T06:09:52.983Z,43.10
2018-05-10T06:12:20.613Z,42.80
2018-05-10T06:14:48.235Z,42.80
2018-05-10T06:17:15.931Z,42.90
2018-05-10T06:19:44.315Z,42.70
2018-05-10T06:22:11.935Z,42.70
2018-05-10T06:24:39.626Z,42.00
2018-05-10T06:27:08.020Z,41.70
2018-05-10T06:29:35.644Z,41.60
2018-05-10T06:32:03.350Z,42.40
2018-05-10T06:34:31.753Z,41.70
2018-05-10T06:36:59.375Z,41.60
2018-05-10T06:39:27.835Z,41.30
2018-05-10T06:41:55.461Z,41.30
2018-05-10T06:44:23.082Z,41.70
2018-05-10T06:46:51.588Z,40.80
2018-05-10T06:49:20.216Z,41.70
2018-05-10T06:51:47.903Z,41.40
2018-05-10T06:54:15.640Z,40.70
2018-05-10T06:56:43.296Z,40.70
2018-05-10T06:59:10.987Z,40.20
2018-05-10T07:01:39.443Z,40.00
2018-05-10T07:04:07.120Z,39.90
2018-05-10T07:06:34.741Z,40.00
2018-05-10T07:09:02.500Z,40.00
2018-05-10T07:11:30.116Z,40.40
2018-05-10T07:13:58.520Z,40.70
2018-05-10T07:16:26.220Z,40.70
2018-05-10T07:18:53.872Z,40.10
2018-05-10T07:21:21.488Z,39.90
2018-05-10T07:23:49.949Z,39.90
2018-05-10T07:26:17.579Z,39.90
2018-05-10T07:28:45.195Z,39.60
2018-05-10T07:31:13.660Z,39.40
2018-05-10T07:33:41.386Z,39.40
2018-05-10T07:36:09.026Z,39.70
2018-05-10T07:38:36.739Z,39.40
2018-05-10T07:41:05.234Z,39.40
2018-05-10T07:43:33.627Z,39.50
2018-05-10T07:46:02.016Z,39.70
2018-05-10T07:48:29.692Z,39.60
2018-05-10T07:50:57.316Z,38.80
2018-05-10T07:53:24.949Z,39.50
2018-05-10T07:55:52.636Z,39.00
2018-05-10T07:58:20.262Z,38.60
2018-05-10T08:00:47.902Z,39.00
2018-05-10T08:03:15.595Z,38.40
2018-05-10T08:05:43.226Z,38.40
2018-05-10T08:08:10.858Z,38.50
2018-05-10T08:10:39.333Z,38.50
2018-05-10T08:13:06.996Z,38.50
2018-05-10T08:15:35.387Z,38.90
2018-05-10T08:18:03.875Z,38.60
2018-05-10T08:20:32.272Z,38.10
2018-05-10T08:22:59.920Z,38.10
2018-05-10T08:25:27.605Z,38.30
2018-05-10T08:27:55.225Z,39.10
2018-05-10T08:30:23.621Z,38.50
2018-05-10T08:32:51.315Z,38.40
2018-05-10T08:35:18.923Z,38.50
2018-05-10T08:37:46.549Z,38.40
2018-05-10T08:40:14.227Z,38.20
2018-05-10T08:42:41.856Z,39.00
2018-05-10T08:45:09.557Z,38.80
2018-05-10T08:47:37.204Z,38.70
2018-05-10T08:50:04.825Z,38.30
2018-05-10T08:52:32.443Z,38.40
2018-05-10T08:55:00.133Z,38.60
2018-05-10T08:57:28.511Z,38.30
2018-05-10T08:59:56.958Z,39.00
2018-05-10T09:02:24.623Z,38.90
2018-05-10T09:04:52.257Z,39.60
2018-05-10T09:07:19.919Z,39.30
2018-05-10T09:09:47.591Z,39.30
2018-05-10T09:12:15.203Z,38.80
2018-05-10T09:14:43.576Z,38.80
2018-05-10T09:17:12.011Z,38.80
2018-05-10T09:19:39.626Z,38.90
2018-05-10T09:22:08.003Z,38.10
2018-05-10T09:24:36.463Z,38.30
2018-05-10T09:27:04.073Z,38.10
2018-05-10T09:29:31.702Z,39.20
2018-05-10T09:32:00.155Z,38.50
2018-05-10T09:34:27.804Z,38.40
2018-05-10T09:36:55.416Z,38.90
2018-05-10T09:39:23.873Z,37.70
2018-05-10T09:41:52.271Z,38.90
2018-05-10T09:44:20.651Z,37.60
2018-05-10T09:46:49.086Z,38.40
2018-05-10T09:49:16.706Z,38.40
2018-05-10T09:51:44.340Z,37.60
2018-05-10T09:54:12.050Z,37.80
2018-05-10T09:56:39.666Z,38.60
2018-05-10T09:59:08.052Z,38.00
2018-05-10T10:01:36.540Z,37.20
2018-05-10T10:04:04.919Z,37.70
2018-05-10T10:06:33.320Z,38.50
2018-05-10T10:09:00.997Z,38.80
2018-05-10T10:11:28.609Z,37.20
2018-05-10T10:13:57.004Z,37.20
2018-05-10T10:16:24.695Z,37.10
2018-05-10T10:18:52.348Z,37.70
2018-05-10T10:21:19.960Z,37.10
2018-05-10T10:23:47.641Z,37.60
2018-05-10T10:26:16.023Z,37.70
2018-05-10T10:28:44.408Z,37.70
2018-05-10T10:31:12.881Z,38.10
2018-05-10T10:33:40.564Z,37.90
2018-05-10T10:36:08.180Z,37.80
2018-05-10T10:38:35.856Z,37.40
2018-05-10T10:41:04.244Z,37.10
2018-05-10T10:43:32.620Z,37.20
2018-05-10T10:46:01.077Z,37.60
2018-05-10T10:48:28.702Z,37.60
2018-05-10T10:50:56.344Z,38.50
2018-05-10T10:53:24.780Z,36.80
2018-05-10T10:55:52.388Z,36.80
2018-05-10T10:58:20.002Z,36.70
2018-05-10T11:00:47.702Z,36.40
2018-05-10T11:03:16.076Z,36.40
2018-05-10T11:05:44.512Z,35.50
2018-05-10T11:08:12.188Z,35.40
2018-05-10T11:10:39.804Z,35.60
2018-05-10T11:13:07.424Z,35.80
2018-05-10T11:15:35.082Z,35.80
2018-05-10T11:18:02.700Z,36.50
2018-05-10T11:20:30.337Z,36.20
2018-05-10T11:22:58.020Z,35.60
2018-05-10T11:25:25.640Z,35.30
2018-05-10T11:27:53.256Z,36.00
2018-05-10T11:30:20.940Z,38.20
2018-05-10T11:32:48.622Z,36.20
2018-05-10T11:35:16.215Z,36.40
2018-05-10T11:37:43.884Z,35.80
2018-05-10T11:40:11.502Z,37.50
2018-05-10T11:42:39.116Z,36.60
2018-05-10T11:45:06.803Z,35.90
2018-05-10T11:47:34.420Z,35.50
2018-05-10T11:50:02.044Z,36.30
2018-05-10T11:52:29.711Z,36.30
2018-05-10T11:54:57.331Z,36.20
2018-05-10T11:57:24.994Z,36.50
2018-05-10T11:59:52.694Z,36.90
2018-05-10T12:02:20.309Z,37.50
2018-05-10T12:04:47.935Z,37.40
2018-05-10T12:07:16.395Z,36.50
2018-05-10T12:09:44.034Z,36.40
2018-05-10T12:12:11.655Z,36.90
2018-05-10T12:14:39.342Z,36.70
2018-05-10T12:17:06.973Z,37.30
2018-05-10T12:19:35.363Z,36.90
2018-05-10T12:22:03.063Z,36.90
2018-05-10T12:24:30.683Z,37.20
2018-05-10T12:26:58.303Z,37.10
2018-05-10T12:29:26.002Z,37.10
2018-05-10T12:31:54.379Z,36.90
2018-05-10T12:34:22.764Z,37.10
2018-05-10T12:36:50.479Z,37.10
2018-05-10T12:39:18.099Z,37.50
2018-05-10T12:41:45.714Z,37.30
2018-05-10T12:44:13.403Z,37.90
2018-05-10T12:46:41.783Z,37.60
2018-05-10T12:49:10.163Z,37.60
2018-05-10T12:51:38.607Z,37.50
2018-05-10T12:54:06.228Z,37.50
2018-05-10T12:56:33.844Z,37.70
2018-05-10T12:59:01.524Z,37.10
2018-05-10T13:01:29.921Z,37.00
2018-05-10T13:03:57.531Z,37.00
2018-05-10T13:06:25.243Z,36.40
2018-05-10T13:08:52.864Z,36.80
2018-05-10T13:11:20.483Z,36.60
2018-05-10T13:13:48.175Z,36.50
2018-05-10T13:16:15.893Z,36.80
2018-05-10T13:18:43.439Z,37.90
2018-05-10T13:21:11.887Z,37.20
2018-05-10T13:23:39.503Z,37.20
2018-05-10T13:26:07.121Z,37.20
2018-05-10T13:28:34.805Z,37.10
2018-05-10T13:31:03.189Z,36.90
2018-05-10T13:33:31.571Z,36.60
2018-05-10T13:36:00.016Z,36.80
2018-05-10T13:38:27.751Z,36.70
2018-05-10T13:40:55.350Z,36.60
2018-05-10T13:43:23.036Z,36.90
2018-05-10T13:45:51.421Z,36.60
2018-05-10T13:48:19.811Z,36.90
2018-05-10T13:50:47.481Z,36.80
2018-05-10T13:53:15.083Z,37.30
2018-05-10T13:55:42.705Z,36.50
2018-05-10T13:58:10.384Z,36.50
2018-05-10T14:00:37.998Z,36.90
2018-05-10T14:03:06.381Z,36.80
2018-05-10T14:05:34.826Z,37.20
2018-05-10T14:08:02.449Z,37.20
2018-05-10T14:10:30.079Z,37.30
2018-05-10T14:12:58.536Z,37.40
2018-05-10T14:15:26.147Z,37.30
2018-05-10T14:17:53.765Z,37.20
2018-05-10T14:20:21.443Z,37.60
2018-05-10T14:22:49.827Z,38.20
2018-05-10T14:25:18.485Z,37.90
2018-05-10T14:27:46.240Z,37.90
2018-05-10T14:30:13.862Z,38.00
2018-05-10T14:32:41.479Z,37.70
2018-05-10T14:35:09.184Z,38.00
2018-05-10T14:37:36.855Z,37.80
2018-05-10T14:40:04.480Z,38.40
2018-05-10T14:42:32.933Z,38.50
2018-05-10T14:45:00.586Z,38.40
2018-05-10T14:47:28.212Z,38.40
2018-05-10T14:49:55.891Z,38.80
2018-05-10T14:52:23.519Z,39.00
2018-05-10T14:54:51.918Z,38.90
2018-05-10T14:57:19.625Z,38.90
2018-05-10T14:59:47.352Z,39.30
2018-05-10T15:02:15.715Z,39.40
2018-05-10T15:04:43.412Z,39.30
2018-05-10T15:07:11.442Z,39.70
2018-05-10T15:09:39.080Z,40.00
2018-05-10T15:12:06.757Z,39.80
2018-05-10T15:14:35.143Z,39.70
2018-05-10T15:17:03.541Z,39.60
2018-05-10T15:19:31.257Z,39.60
2018-05-10T15:21:59.275Z,39.50
2018-05-10T15:24:26.921Z,39.80
2018-05-10T15:26:54.616Z,40.00
2018-05-10T15:29:22.316Z,40.20
2018-05-10T15:31:49.972Z,40.90
2018-05-10T15:34:17.671Z,40.90
2018-05-10T15:36:45.287Z,40.90
2018-05-10T15:39:12.915Z,40.80
2018-05-10T15:41:41.383Z,40.80
2018-05-10T15:44:09.004Z,40.80
2018-05-10T15:46:36.663Z,41.10
2018-05-10T15:49:04.376Z,40.60
2018-05-10T15:51:31.992Z,40.40
2018-05-10T15:53:59.608Z,40.80
2018-05-10T15:56:27.293Z,40.70
2018-05-10T15:58:54.920Z,41.30
2018-05-10T16:01:22.539Z,40.90
2018-05-10T16:03:50.251Z,41.10
2018-05-10T16:06:17.863Z,41.50
2018-05-10T16:08:45.477Z,41.40
2018-05-10T16:11:13.176Z,41.50
2018-05-10T16:13:40.811Z,41.40
2018-05-10T16:16:08.434Z,41.50
2018-05-10T16:18:36.936Z,41.80
2018-05-10T16:21:04.564Z,41.80
2018-05-10T16:23:32.965Z,41.70
2018-05-10T16:26:00.644Z,41.70
2018-05-10T16:28:28.264Z,42.10
2018-05-10T16:30:55.882Z,42.10
2018-05-10T16:33:23.571Z,42.00
2018-05-10T16:35:51.202Z,42.10
2018-05-10T16:38:18.831Z,42.50
2018-05-10T16:40:47.287Z,42.30
2018-05-10T16:43:14.915Z,42.30
2018-05-10T16:45:42.560Z,42.10
2018-05-10T16:48:10.238Z,42.10
2018-05-10T16:50:37.855Z,42.40
2018-05-10T16:53:06.243Z,42.20
2018-05-10T16:55:33.919Z,42.10
2018-05-10T16:58:01.527Z,42.60
2018-05-10T17:00:29.203Z,42.80
2018-05-10T17:02:57.663Z,44.60
2018-05-10T17:05:25.292Z,44.60
2018-05-10T17:07:52.910Z,45.60
2018-05-10T17:10:21.367Z,47.70
2018-05-10T17:12:48.986Z,47.70
2018-05-10T17:15:16.644Z,50.20
2018-05-10T17:17:45.176Z,52.50
2018-05-10T17:20:12.796Z,54.50
2018-05-10T17:22:40.423Z,55.70
2018-05-10T17:25:08.868Z,54.20
2018-05-10T17:27:36.504Z,54.10
2018-05-10T17:30:04.164Z,56.30
2018-05-10T17:32:31.842Z,51.40
2018-05-10T17:34:59.467Z,50.10
2018-05-10T17:37:27.082Z,48.80
2018-05-10T17:39:54.759Z,48.90
2018-05-10T17:42:22.406Z,47.70
2018-05-10T17:44:50.026Z,47.90
2018-05-10T17:47:17.763Z,48.00
2018-05-10T17:49:46.168Z,48.10
2018-05-10T17:52:13.783Z,48.00
2018-05-10T17:54:41.463Z,47.70
2018-05-10T17:57:09.852Z,48.00
2018-05-10T17:59:38.230Z,48.50
2018-05-10T18:02:06.684Z,49.00
2018-05-10T18:04:34.300Z,49.00
2018-05-10T18:07:01.936Z,48.90
2018-05-10T18:09:30.374Z,48.90
2018-05-10T18:11:58.556Z,48.90
2018-05-10T18:14:26.327Z,50.00
2018-05-10T18:16:54.024Z,49.80
2018-05-10T18:19:22.775Z,52.40
2018-05-10T18:21:50.394Z,52.30
2018-05-10T18:24:18.076Z,53.10
2018-05-10T18:26:45.733Z,53.40
2018-05-10T18:29:13.500Z,52.50
2018-05-10T18:31:41.189Z,53.70
2018-05-10T18:34:09.011Z,54.30
2018-05-10T18:36:36.690Z,53.20
2018-05-10T18:39:04.451Z,54.10
2018-05-10T18:41:32.829Z,52.60
2018-05-10T18:44:00.459Z,52.50
2018-05-10T18:46:28.974Z,54.70
2018-05-10T18:48:56.571Z,54.70
2018-05-10T18:51:24.204Z,55.30
2018-05-10T18:53:51.931Z,54.30
2018-05-10T18:56:19.547Z,53.30
2018-05-10T18:58:47.163Z,53.60
2018-05-10T19:01:14.901Z,54.00
2018-05-10T19:03:43.748Z,52.70
2018-05-10T19:06:11.392Z,52.80
2018-05-10T19:08:40.765Z,52.50
2018-05-10T19:11:09.075Z,52.50
2018-05-10T19:13:36.765Z,52.20
2018-05-10T19:16:04.553Z,52.50
2018-05-10T19:18:33.145Z,53.40
2018-05-10T19:21:01.765Z,53.60
2018-05-10T19:23:29.330Z,53.60
2018-05-10T19:25:56.978Z,53.30
2018-05-10T19:28:24.752Z,52.70
2018-05-10T19:30:53.560Z,52.00
2018-05-10T19:33:21.972Z,51.00
2018-05-10T19:35:50.493Z,52.10
2018-05-10T19:38:18.920Z,52.10
2018-05-10T19:40:46.565Z,52.90
2018-05-10T19:43:14.304Z,53.60
2018-05-10T19:45:41.993Z,55.20
2018-05-10T19:48:09.663Z,55.00
2018-05-10T19:50:37.413Z,56.20
2018-05-10T19:53:05.053Z,55.70
2018-05-10T19:55:32.676Z,54.20
2018-05-10T19:58:01.224Z,53.10
2018-05-10T20:00:28.857Z,53.00
2018-05-10T20:02:56.509Z,53.10
2018-05-10T20:05:24.217Z,53.10
2018-05-10T20:07:51.869Z,54.20
2018-05-10T20:10:19.523Z,54.00
2018-05-10T20:12:47.235Z,54.30
2018-05-10T20:15:15.648Z,54.70
2018-05-10T20:17:43.345Z,54.70
2018-05-10T20:20:11.013Z,55.60
2018-05-10T20:22:38.697Z,56.10
2018-05-10T20:25:06.427Z,55.80
2018-05-10T20:27:34.099Z,56.20
2018-05-10T20:30:01.738Z,56.90
2018-05-10T20:32:29.539Z,57.20
2018-05-10T20:34:57.172Z,57.60
2018-05-10T20:37:24.840Z,57.70
2018-05-10T20:39:52.523Z,57.60
2018-05-10T20:42:20.163Z,56.80
2018-05-10T20:44:47.911Z,57.50
2018-05-10T20:47:15.552Z,58.40
2018-05-10T20:49:43.193Z,58.40
2018-05-10T20:52:11.607Z,58.10
2018-05-10T20:54:39.451Z,58.10
2018-05-10T20:57:07.847Z,59.80
2018-05-10T20:59:35.639Z,59.90
2018-05-10T21:02:03.341Z,59.30
2018-05-10T21:04:31.756Z,58.40
2018-05-10T21:06:59.391Z,58.40
2018-05-10T21:09:27.867Z,59.10
2018-05-10T21:11:55.535Z,59.10
2018-05-10T21:14:23.969Z,59.20
2018-05-10T21:16:51.670Z,59.10
2018-05-10T21:19:20.076Z,59.60
2018-05-10T21:21:47.785Z,59.50
2018-05-10T21:24:15.515Z,60.10
2018-05-10T21:26:43.145Z,60.30
2018-05-10T21:29:11.549Z,62.60
2018-05-10T21:31:39.247Z,62.70
2018-05-10T21:34:06.901Z,63.00
2018-05-10T21:36:34.542Z,63.00
2018-05-10T21:39:02.266Z,64.40
2018-05-10T21:41:30.704Z,64.50
2018-05-10T21:43:58.396Z,64.40
2018-05-10T21:46:26.143Z,65.00
2018-05-10T21:48:53.791Z,65.20
2018-05-10T21:51:21.429Z,65.80
2018-05-10T21:53:49.119Z,65.90
2018-05-10T21:56:16.756Z,65.80
2018-05-10T21:58:44.408Z,68.20
2018-05-10T22:01:12.115Z,68.30
2018-05-10T22:03:39.750Z,69.10
2018-05-10T22:06:07.403Z,69.40
2018-05-10T22:08:35.085Z,70.60
2018-05-10T22:11:02.709Z,71.50
2018-05-10T22:13:31.088Z,75.40
2018-05-10T22:15:59.537Z,77.10
2018-05-10T22:18:27.197Z,77.10
2018-05-10T22:20:54.833Z,74.60
2018-05-10T22:23:22.519Z,73.90
2018-05-10T22:25:50.249Z,75.40
2018-05-10T22:28:18.638Z,77.70
2018-05-10T22:30:46.329Z,77.70
2018-05-10T22:33:13.946Z,79.50
2018-05-10T22:35:42.319Z,80.10
2018-05-10T22:38:10.005Z,79.70
2018-05-10T22:40:37.639Z,80.50
2018-05-10T22:43:05.255Z,82.90
2018-05-10T22:45:32.934Z,83.10
2018-05-10T22:48:00.646Z,80.70
2018-05-10T22:50:28.231Z,81.20
2018-05-10T22:52:55.947Z,82.20
2018-05-10T22:55:23.566Z,89.60
2018-05-10T22:57:51.199Z,90.60
2018-05-10T23:00:18.897Z,86.90
2018-05-10T23:02:46.536Z,87.10
2018-05-10T23:05:14.168Z,85.40
2018-05-10T23:07:41.850Z,83.60
2018-05-10T23:10:09.477Z,83.70
2018-05-10T23:12:37.113Z,83.90
2018-05-10T23:15:04.802Z,85.50
2018-05-10T23:17:32.445Z,85.90
2018-05-10T23:20:00.840Z,88.70
2018-05-10T23:22:28.514Z,88.50
2018-05-10T23:24:56.136Z,88.20
2018-05-10T23:27:23.763Z,90.70
2018-05-10T23:29:51.437Z,90.10
2018-05-10T23:32:19.058Z,90.70
2018-05-10T23:34:46.681Z,89.90
2018-05-10T23:37:14.372Z,89.90
2018-05-10T23:39:42.752Z,90.40
2018-05-10T23:42:11.136Z,91.10
2018-05-10T23:44:38.830Z,91.10
2018-05-10T23:47:06.451Z,91.40
2018-05-10T23:49:34.883Z,90.30
2018-05-10T23:52:02.584Z,90.30
2018-05-10T23:54:30.970Z,90.60
2018-05-10T23:56:59.358Z,90.60
2018-05-10T23:59:27.029Z,90.60
